sensor_id;sensor_type;location;lat;lon;timestamp;pressure;altitude;pressure_sealevel;temperature;humidity
81897;BME280;71360;43.506;1.500;2023-07-30T00:01:38;99093.78;;;27.33;57.41
81897;BME280;71360;43.506;1.500;2023-07-30T00:04:04;99091.22;;;27.32;57.29
81897;BME280;71360;43.506;1.500;2023-07-30T00:06:29;99088.28;;;27.33;57.08
81897;BME280;71360;43.506;1.500;2023-07-30T00:08:55;99082.16;;;27.31;57.78
81897;BME280;71360;43.506;1.500;2023-07-30T00:11:20;99087.66;;;27.31;57.30
81897;BME280;71360;43.506;1.500;2023-07-30T00:13:46;99086.56;;;27.32;57.53
81897;BME280;71360;43.506;1.500;2023-07-30T00:16:11;99092.06;;;27.32;57.65
81897;BME280;71360;43.506;1.500;2023-07-30T00:18:37;99088.47;;;27.32;57.82
81897;BME280;71360;43.506;1.500;2023-07-30T00:21:02;99086.78;;;27.30;57.80
81897;BME280;71360;43.506;1.500;2023-07-30T00:23:27;99087.66;;;27.31;57.61
81897;BME280;71360;43.506;1.500;2023-07-30T00:25:53;99091.22;;;27.32;57.25
81897;BME280;71360;43.506;1.500;2023-07-30T00:28:18;99087.66;;;27.31;57.41
81897;BME280;71360;43.506;1.500;2023-07-30T00:30:44;99075.78;;;27.30;57.45
81897;BME280;71360;43.506;1.500;2023-07-30T00:33:10;99085.94;;;27.30;57.85
81897;BME280;71360;43.506;1.500;2023-07-30T00:35:35;99087.66;;;27.31;57.77
81897;BME280;71360;43.506;1.500;2023-07-30T00:38:01;99089.50;;;27.30;57.55
81897;BME280;71360;43.506;1.500;2023-07-30T00:40:26;99085.94;;;27.30;57.61
81897;BME280;71360;43.506;1.500;2023-07-30T00:42:51;99087.84;;;27.29;57.47
81897;BME280;71360;43.506;1.500;2023-07-30T00:45:17;99099.66;;;27.30;57.74
81897;BME280;71360;43.506;1.500;2023-07-30T00:47:43;99104.28;;;27.29;57.30
81897;BME280;71360;43.506;1.500;2023-07-30T00:50:10;99089.72;;;27.29;58.00
81897;BME280;71360;43.506;1.500;2023-07-30T00:52:38;99096.22;;;27.28;57.41
81897;BME280;71360;43.506;1.500;2023-07-30T00:55:04;99093.47;;;27.28;57.59
81897;BME280;71360;43.506;1.500;2023-07-30T00:57:30;99091.63;;;27.28;57.90
81897;BME280;71360;43.506;1.500;2023-07-30T00:59:57;99098.97;;;27.28;57.73
81897;BME280;71360;43.506;1.500;2023-07-30T01:02:22;99098.97;;;27.28;57.78
81897;BME280;71360;43.506;1.500;2023-07-30T01:04:48;99095.38;;;27.27;57.96
81897;BME280;71360;43.506;1.500;2023-07-30T01:07:14;99096.22;;;27.28;57.54
81897;BME280;71360;43.506;1.500;2023-07-30T01:09:40;99105.53;;;27.27;57.23
81897;BME280;71360;43.506;1.500;2023-07-30T01:12:06;99107.41;;;27.26;57.42
81897;BME280;71360;43.506;1.500;2023-07-30T01:14:32;99101.91;;;27.26;57.41
81897;BME280;71360;43.506;1.500;2023-07-30T01:16:58;99092.84;;;27.26;57.27
81897;BME280;71360;43.506;1.500;2023-07-30T01:19:24;99101.06;;;27.26;57.48
81897;BME280;71360;43.506;1.500;2023-07-30T01:21:49;99109.31;;;27.26;57.65
81897;BME280;71360;43.506;1.500;2023-07-30T01:24:15;99101.06;;;27.26;57.41
81897;BME280;71360;43.506;1.500;2023-07-30T01:26:55;99097.50;;;27.25;58.00
81897;BME280;71360;43.506;1.500;2023-07-30T01:29:28;99110.34;;;27.25;57.70
81897;BME280;71360;43.506;1.500;2023-07-30T01:31:57;99110.34;;;27.25;57.49
81897;BME280;71360;43.506;1.500;2023-07-30T01:34:27;99115.81;;;27.25;57.50
81897;BME280;71360;43.506;1.500;2023-07-30T01:36:54;99118.56;;;27.25;57.25
81897;BME280;71360;43.506;1.500;2023-07-30T01:39:20;99116.84;;;27.24;57.61
81897;BME280;71360;43.506;1.500;2023-07-30T01:41:46;99106.75;;;27.24;57.20
81897;BME280;71360;43.506;1.500;2023-07-30T01:44:11;99116.84;;;27.24;57.18
81897;BME280;71360;43.506;1.500;2023-07-30T01:46:36;99111.38;;;27.24;57.70
81897;BME280;71360;43.506;1.500;2023-07-30T01:49:02;99112.44;;;27.23;57.27
81897;BME280;71360;43.506;1.500;2023-07-30T01:51:27;99107.78;;;27.23;57.19
81897;BME280;71360;43.506;1.500;2023-07-30T01:53:53;99115.16;;;27.23;57.45
81897;BME280;71360;43.506;1.500;2023-07-30T01:56:18;99115.16;;;27.23;57.29
81897;BME280;71360;43.506;1.500;2023-07-30T01:58:44;99113.47;;;27.22;57.63
81897;BME280;71360;43.506;1.500;2023-07-30T02:01:09;99113.47;;;27.22;57.63
81897;BME280;71360;43.506;1.500;2023-07-30T02:03:35;99115.16;;;27.23;57.51
81897;BME280;71360;43.506;1.500;2023-07-30T02:06:00;99113.47;;;27.22;57.04
81897;BME280;71360;43.506;1.500;2023-07-30T02:08:25;99109.00;;;27.21;57.26
81897;BME280;71360;43.506;1.500;2023-07-30T02:10:58;99107.97;;;27.22;57.34
81897;BME280;71360;43.506;1.500;2023-07-30T02:13:24;99104.56;;;27.20;57.05
81897;BME280;71360;43.506;1.500;2023-07-30T02:15:50;99109.19;;;27.19;57.53
81897;BME280;71360;43.506;1.500;2023-07-30T02:18:15;99107.28;;;27.20;57.53
81897;BME280;71360;43.506;1.500;2023-07-30T02:20:41;99110.03;;;27.20;57.12
81897;BME280;71360;43.506;1.500;2023-07-30T02:23:07;99096.31;;;27.20;56.91
81897;BME280;71360;43.506;1.500;2023-07-30T02:25:32;99099.06;;;27.20;57.57
81897;BME280;71360;43.506;1.500;2023-07-30T02:27:59;99104.56;;;27.20;57.21
81897;BME280;71360;43.506;1.500;2023-07-30T02:30:26;99104.56;;;27.20;57.15
81897;BME280;71360;43.506;1.500;2023-07-30T02:32:51;99101.81;;;27.20;57.09
81897;BME280;71360;43.506;1.500;2023-07-30T02:35:16;99105.63;;;27.19;56.73
81897;BME280;71360;43.506;1.500;2023-07-30T02:37:42;99104.75;;;27.18;57.01
81897;BME280;71360;43.506;1.500;2023-07-30T02:40:08;99107.50;;;27.18;56.91
81897;BME280;71360;43.506;1.500;2023-07-30T02:42:33;99106.66;;;27.18;57.28
81897;BME280;71360;43.506;1.500;2023-07-30T02:44:59;99105.78;;;27.17;57.30
81897;BME280;71360;43.506;1.500;2023-07-30T02:47:24;99110.44;;;27.17;56.75
81897;BME280;71360;43.506;1.500;2023-07-30T02:49:50;99115.91;;;27.17;56.66
81897;BME280;71360;43.506;1.500;2023-07-30T02:52:15;99117.63;;;27.18;56.62
81897;BME280;71360;43.506;1.500;2023-07-30T02:54:41;99115.91;;;27.17;57.02
81897;BME280;71360;43.506;1.500;2023-07-30T02:57:06;99117.81;;;27.16;57.07
81897;BME280;71360;43.506;1.500;2023-07-30T02:59:32;99117.81;;;27.16;56.74
81897;BME280;71360;43.506;1.500;2023-07-30T03:02:01;99116.94;;;27.16;56.97
81897;BME280;71360;43.506;1.500;2023-07-30T03:04:27;99120.56;;;27.16;57.09
81897;BME280;71360;43.506;1.500;2023-07-30T03:06:52;99119.69;;;27.16;56.93
81897;BME280;71360;43.506;1.500;2023-07-30T03:09:17;99119.69;;;27.16;57.03
81897;BME280;71360;43.506;1.500;2023-07-30T03:11:43;99126.25;;;27.15;56.35
81897;BME280;71360;43.506;1.500;2023-07-30T03:14:08;99123.50;;;27.15;56.96
81897;BME280;71360;43.506;1.500;2023-07-30T03:16:34;99128.09;;;27.14;56.48
81897;BME280;71360;43.506;1.500;2023-07-30T03:18:59;99139.94;;;27.15;57.01
81897;BME280;71360;43.506;1.500;2023-07-30T03:21:24;99132.75;;;27.13;57.06
81897;BME280;71360;43.506;1.500;2023-07-30T03:23:50;99127.28;;;27.13;56.37
81897;BME280;71360;43.506;1.500;2023-07-30T03:26:15;99135.50;;;27.13;56.94
81897;BME280;71360;43.506;1.500;2023-07-30T03:28:41;99136.34;;;27.14;56.40
81897;BME280;71360;43.506;1.500;2023-07-30T03:31:06;99143.72;;;27.13;56.28
81897;BME280;71360;43.506;1.500;2023-07-30T03:33:32;99141.81;;;27.14;56.27
81897;BME280;71360;43.506;1.500;2023-07-30T03:35:58;99145.59;;;27.13;56.28
81897;BME280;71360;43.506;1.500;2023-07-30T03:38:24;99142.84;;;27.13;56.63
81897;BME280;71360;43.506;1.500;2023-07-30T03:40:49;99145.59;;;27.13;56.50
81897;BME280;71360;43.506;1.500;2023-07-30T03:43:15;99148.34;;;27.13;56.85
81897;BME280;71360;43.506;1.500;2023-07-30T03:45:40;99144.75;;;27.12;56.18
81897;BME280;71360;43.506;1.500;2023-07-30T03:48:06;99150.25;;;27.12;56.35
81897;BME280;71360;43.506;1.500;2023-07-30T03:50:31;99154.00;;;27.11;56.32
81897;BME280;71360;43.506;1.500;2023-07-30T03:52:57;99147.50;;;27.12;56.72
81897;BME280;71360;43.506;1.500;2023-07-30T03:55:23;99149.41;;;27.12;56.41
81897;BME280;71360;43.506;1.500;2023-07-30T03:57:49;99151.28;;;27.11;56.51
81897;BME280;71360;43.506;1.500;2023-07-30T04:00:15;99154.88;;;27.12;56.51
81897;BME280;71360;43.506;1.500;2023-07-30T04:02:40;99166.88;;;27.11;56.31
81897;BME280;71360;43.506;1.500;2023-07-30T04:05:06;99166.88;;;27.11;55.98
81897;BME280;71360;43.506;1.500;2023-07-30T04:07:31;99166.06;;;27.10;56.55
81897;BME280;71360;43.506;1.500;2023-07-30T04:09:57;99167.91;;;27.10;56.63
81897;BME280;71360;43.506;1.500;2023-07-30T04:12:22;99162.44;;;27.10;56.23
81897;BME280;71360;43.506;1.500;2023-07-30T04:14:48;99160.56;;;27.10;56.14
81897;BME280;71360;43.506;1.500;2023-07-30T04:17:13;99175.31;;;27.09;56.42
81897;BME280;71360;43.506;1.500;2023-07-30T04:19:39;99169.81;;;27.09;55.94
81897;BME280;71360;43.506;1.500;2023-07-30T04:22:04;99170.00;;;27.08;56.25
81897;BME280;71360;43.506;1.500;2023-07-30T04:24:30;99178.06;;;27.09;56.48
81897;BME280;71360;43.506;1.500;2023-07-30T04:26:55;99185.41;;;27.09;56.51
81897;BME280;71360;43.506;1.500;2023-07-30T04:29:21;99184.75;;;27.07;56.01
81897;BME280;71360;43.506;1.500;2023-07-30T04:31:46;99196.38;;;27.09;56.05
81897;BME280;71360;43.506;1.500;2023-07-30T04:34:11;99193.81;;;27.07;55.80
81897;BME280;71360;43.506;1.500;2023-07-30T04:36:37;99193.81;;;27.07;55.77
81897;BME280;71360;43.506;1.500;2023-07-30T04:39:02;99192.97;;;27.07;56.38
81897;BME280;71360;43.506;1.500;2023-07-30T04:41:28;99199.31;;;27.07;55.67
81897;BME280;71360;43.506;1.500;2023-07-30T04:43:53;99181.19;;;27.06;55.76
81897;BME280;71360;43.506;1.500;2023-07-30T04:46:19;99191.28;;;27.06;56.15
81897;BME280;71360;43.506;1.500;2023-07-30T04:48:44;99187.50;;;27.07;56.49
81897;BME280;71360;43.506;1.500;2023-07-30T04:51:10;99190.25;;;27.07;56.46
81897;BME280;71360;43.506;1.500;2023-07-30T04:53:35;99195.91;;;27.05;56.39
81897;BME280;71360;43.506;1.500;2023-07-30T04:56:00;99193.19;;;27.05;55.84
81897;BME280;71360;43.506;1.500;2023-07-30T04:58:26;99187.69;;;27.05;55.84
81897;BME280;71360;43.506;1.500;2023-07-30T05:00:51;99194.88;;;27.06;55.70
81897;BME280;71360;43.506;1.500;2023-07-30T05:03:17;99193.19;;;27.05;55.85
81897;BME280;71360;43.506;1.500;2023-07-30T05:05:42;99202.44;;;27.04;56.22
81897;BME280;71360;43.506;1.500;2023-07-30T05:08:08;99204.16;;;27.05;56.37
81897;BME280;71360;43.506;1.500;2023-07-30T05:10:33;99206.88;;;27.05;55.89
81897;BME280;71360;43.506;1.500;2023-07-30T05:12:59;99207.91;;;27.04;56.16
81897;BME280;71360;43.506;1.500;2023-07-30T05:15:25;99213.41;;;27.04;55.75
81897;BME280;71360;43.506;1.500;2023-07-30T05:17:50;99200.72;;;27.03;55.67
81897;BME280;71360;43.506;1.500;2023-07-30T05:20:16;99213.41;;;27.04;55.97
81897;BME280;71360;43.506;1.500;2023-07-30T05:22:41;99205.19;;;27.04;55.60
81897;BME280;71360;43.506;1.500;2023-07-30T05:25:07;99217.00;;;27.05;56.24
81897;BME280;71360;43.506;1.500;2023-07-30T05:27:33;99209.81;;;27.04;56.02
81897;BME280;71360;43.506;1.500;2023-07-30T05:29:58;99209.81;;;27.04;56.23
81897;BME280;71360;43.506;1.500;2023-07-30T05:32:25;99208.94;;;27.03;55.91
81897;BME280;71360;43.506;1.500;2023-07-30T05:34:50;99214.44;;;27.03;55.84
81897;BME280;71360;43.506;1.500;2023-07-30T05:37:16;99219.06;;;27.03;55.94
81897;BME280;71360;43.506;1.500;2023-07-30T05:39:41;99208.09;;;27.03;56.30
81897;BME280;71360;43.506;1.500;2023-07-30T05:42:07;99211.69;;;27.03;56.35
81897;BME280;71360;43.506;1.500;2023-07-30T05:44:32;99211.69;;;27.03;55.75
81897;BME280;71360;43.506;1.500;2023-07-30T05:46:58;99214.44;;;27.03;55.76
81897;BME280;71360;43.506;1.500;2023-07-30T05:49:24;99223.69;;;27.02;56.58
81897;BME280;71360;43.506;1.500;2023-07-30T05:51:50;99224.56;;;27.03;55.97
81897;BME280;71360;43.506;1.500;2023-07-30T05:54:16;99221.81;;;27.03;56.50
81897;BME280;71360;43.506;1.500;2023-07-30T05:56:41;99225.59;;;27.02;56.57
81897;BME280;71360;43.506;1.500;2023-07-30T05:59:07;99234.66;;;27.02;56.60
81897;BME280;71360;43.506;1.500;2023-07-30T06:01:32;99238.28;;;27.03;56.35
81897;BME280;71360;43.506;1.500;2023-07-30T06:03:58;99233.81;;;27.02;56.10
81897;BME280;71360;43.506;1.500;2023-07-30T06:06:23;99232.09;;;27.01;55.88
81897;BME280;71360;43.506;1.500;2023-07-30T06:08:53;99243.06;;;27.01;56.27
81897;BME280;71360;43.506;1.500;2023-07-30T06:11:19;99233.81;;;27.02;56.06
81897;BME280;71360;43.506;1.500;2023-07-30T06:13:44;99234.66;;;27.02;56.19
81897;BME280;71360;43.506;1.500;2023-07-30T06:16:10;99238.47;;;27.01;55.92
81897;BME280;71360;43.506;1.500;2023-07-30T06:18:35;99254.03;;;27.01;56.54
81897;BME280;71360;43.506;1.500;2023-07-30T06:21:01;99251.13;;;27.02;56.54
81897;BME280;71360;43.506;1.500;2023-07-30T06:23:26;99250.28;;;27.02;56.32
81897;BME280;71360;43.506;1.500;2023-07-30T06:25:52;99258.50;;;27.02;56.22
81897;BME280;71360;43.506;1.500;2023-07-30T06:28:17;99260.41;;;27.01;55.99
81897;BME280;71360;43.506;1.500;2023-07-30T06:30:43;99260.22;;;27.03;55.98
81897;BME280;71360;43.506;1.500;2023-07-30T06:33:08;99266.72;;;27.02;56.52
81897;BME280;71360;43.506;1.500;2023-07-30T06:35:34;99267.56;;;27.02;56.13
81897;BME280;71360;43.506;1.500;2023-07-30T06:37:59;99276.84;;;27.01;56.20
81897;BME280;71360;43.506;1.500;2023-07-30T06:40:25;99274.13;;;27.01;56.12
81897;BME280;71360;43.506;1.500;2023-07-30T06:42:50;99279.41;;;27.03;55.97
81897;BME280;71360;43.506;1.500;2023-07-30T06:45:16;99276.84;;;27.01;56.17
81897;BME280;71360;43.506;1.500;2023-07-30T06:47:41;99279.59;;;27.01;56.31
81897;BME280;71360;43.506;1.500;2023-07-30T06:50:07;99280.63;;;27.00;55.70
81897;BME280;71360;43.506;1.500;2023-07-30T06:52:34;99281.47;;;27.01;55.96
81897;BME280;71360;43.506;1.500;2023-07-30T06:55:01;99291.59;;;27.00;56.33
81897;BME280;71360;43.506;1.500;2023-07-30T06:57:26;99287.81;;;27.01;56.42
81897;BME280;71360;43.506;1.500;2023-07-30T06:59:51;99288.84;;;27.00;56.41
81897;BME280;71360;43.506;1.500;2023-07-30T07:02:17;99282.34;;;27.01;56.18
81897;BME280;71360;43.506;1.500;2023-07-30T07:04:42;99285.28;;;27.00;56.62
81897;BME280;71360;43.506;1.500;2023-07-30T07:07:08;99288.84;;;27.00;56.03
81897;BME280;71360;43.506;1.500;2023-07-30T07:09:34;99288.84;;;27.00;55.95
81897;BME280;71360;43.506;1.500;2023-07-30T07:11:59;99295.19;;;27.01;56.12
81897;BME280;71360;43.506;1.500;2023-07-30T07:14:25;99296.25;;;27.00;56.46
81897;BME280;71360;43.506;1.500;2023-07-30T07:16:52;99297.09;;;27.00;56.61
81897;BME280;71360;43.506;1.500;2023-07-30T07:19:17;99290.75;;;27.00;56.40
81897;BME280;71360;43.506;1.500;2023-07-30T07:21:43;99282.53;;;27.00;56.41
81897;BME280;71360;43.506;1.500;2023-07-30T07:24:08;99286.13;;;27.00;55.92
81897;BME280;71360;43.506;1.500;2023-07-30T07:26:34;99297.09;;;27.00;56.54
81897;BME280;71360;43.506;1.500;2023-07-30T07:28:59;99291.59;;;27.00;56.01
81897;BME280;71360;43.506;1.500;2023-07-30T07:31:24;99291.59;;;27.00;56.09
81897;BME280;71360;43.506;1.500;2023-07-30T07:33:50;99291.59;;;27.00;56.18
81897;BME280;71360;43.506;1.500;2023-07-30T07:36:16;99296.25;;;27.00;55.95
81897;BME280;71360;43.506;1.500;2023-07-30T07:38:42;99292.63;;;26.99;56.13
81897;BME280;71360;43.506;1.500;2023-07-30T07:41:07;99300.84;;;26.99;55.97
81897;BME280;71360;43.506;1.500;2023-07-30T07:43:38;99303.59;;;26.99;56.73
81897;BME280;71360;43.506;1.500;2023-07-30T07:46:04;99294.53;;;26.99;56.73
81897;BME280;71360;43.506;1.500;2023-07-30T07:48:35;99300.84;;;26.99;56.27
81897;BME280;71360;43.506;1.500;2023-07-30T07:51:00;99301.72;;;27.00;56.42
81897;BME280;71360;43.506;1.500;2023-07-30T07:53:26;99295.38;;;26.99;56.74
81897;BME280;71360;43.506;1.500;2023-07-30T07:55:51;99298.13;;;26.99;56.27
81897;BME280;71360;43.506;1.500;2023-07-30T07:58:17;99306.34;;;26.99;56.31
81897;BME280;71360;43.506;1.500;2023-07-30T08:00:42;99308.06;;;27.00;55.95
81897;BME280;71360;43.506;1.500;2023-07-30T08:03:07;99304.47;;;27.00;56.13
81897;BME280;71360;43.506;1.500;2023-07-30T08:05:33;99312.69;;;27.00;56.41
81897;BME280;71360;43.506;1.500;2023-07-30T08:07:58;99310.78;;;27.00;55.81
81897;BME280;71360;43.506;1.500;2023-07-30T08:10:24;99312.69;;;27.00;56.24
81897;BME280;71360;43.506;1.500;2023-07-30T08:12:53;99308.06;;;27.00;56.11
81897;BME280;71360;43.506;1.500;2023-07-30T08:15:18;99314.38;;;27.01;55.88
81897;BME280;71360;43.506;1.500;2023-07-30T08:17:45;99311.81;;;26.99;56.12
81897;BME280;71360;43.506;1.500;2023-07-30T08:20:11;99312.69;;;27.00;56.27
81897;BME280;71360;43.506;1.500;2023-07-30T08:22:37;99312.69;;;27.00;56.14
81897;BME280;71360;43.506;1.500;2023-07-30T08:25:14;99316.28;;;27.00;56.27
81897;BME280;71360;43.506;1.500;2023-07-30T08:27:41;99323.66;;;27.00;56.14
81897;BME280;71360;43.506;1.500;2023-07-30T08:30:07;99319.03;;;27.00;55.66
81897;BME280;71360;43.506;1.500;2023-07-30T08:32:33;99319.03;;;27.00;55.58
81897;BME280;71360;43.506;1.500;2023-07-30T08:34:59;99319.88;;;27.01;55.58
81897;BME280;71360;43.506;1.500;2023-07-30T08:37:24;99319.03;;;27.00;55.92
81897;BME280;71360;43.506;1.500;2023-07-30T08:39:49;99319.03;;;27.00;55.80
81897;BME280;71360;43.506;1.500;2023-07-30T08:42:15;99315.25;;;27.01;56.19
81897;BME280;71360;43.506;1.500;2023-07-30T08:44:41;99313.53;;;27.00;55.97
81897;BME280;71360;43.506;1.500;2023-07-30T08:47:06;99323.47;;;27.01;56.02
81897;BME280;71360;43.506;1.500;2023-07-30T08:49:32;99315.25;;;27.01;55.54
81897;BME280;71360;43.506;1.500;2023-07-30T08:52:02;99327.91;;;27.02;56.02
81897;BME280;71360;43.506;1.500;2023-07-30T08:54:30;99327.91;;;27.02;55.55
81897;BME280;71360;43.506;1.500;2023-07-30T08:56:57;99322.41;;;27.02;56.22
81897;BME280;71360;43.506;1.500;2023-07-30T08:59:24;99327.91;;;27.02;56.16
81897;BME280;71360;43.506;1.500;2023-07-30T09:01:54;99331.53;;;27.03;56.20
81897;BME280;71360;43.506;1.500;2023-07-30T09:04:22;99333.38;;;27.02;56.24
81897;BME280;71360;43.506;1.500;2023-07-30T09:06:48;99326.03;;;27.03;55.50
81897;BME280;71360;43.506;1.500;2023-07-30T09:09:14;99322.41;;;27.02;55.99
81897;BME280;71360;43.506;1.500;2023-07-30T09:11:39;99324.13;;;27.03;55.74
81897;BME280;71360;43.506;1.500;2023-07-30T09:14:06;99325.16;;;27.02;55.71
81897;BME280;71360;43.506;1.500;2023-07-30T09:16:31;99324.13;;;27.03;55.57
81897;BME280;71360;43.506;1.500;2023-07-30T09:18:57;99324.13;;;27.03;55.50
81897;BME280;71360;43.506;1.500;2023-07-30T09:21:33;99325.84;;;27.04;55.52
81897;BME280;71360;43.506;1.500;2023-07-30T09:24:08;99325.00;;;27.04;55.61
81897;BME280;71360;43.506;1.500;2023-07-30T09:26:45;99328.59;;;27.04;55.89
81897;BME280;71360;43.506;1.500;2023-07-30T09:29:11;99329.63;;;27.03;55.49
81897;BME280;71360;43.506;1.500;2023-07-30T09:31:49;99323.09;;;27.04;56.07
81897;BME280;71360;43.506;1.500;2023-07-30T09:34:17;99329.63;;;27.03;55.70
81897;BME280;71360;43.506;1.500;2023-07-30T09:36:44;99324.13;;;27.03;56.05
81897;BME280;71360;43.506;1.500;2023-07-30T09:39:23;99323.09;;;27.04;55.81
81897;BME280;71360;43.506;1.500;2023-07-30T09:41:51;99329.63;;;27.03;55.82
81897;BME280;71360;43.506;1.500;2023-07-30T09:44:18;99323.28;;;27.03;55.65
81897;BME280;71360;43.506;1.500;2023-07-30T09:46:45;99322.41;;;27.02;55.37
81897;BME280;71360;43.506;1.500;2023-07-30T09:49:11;99327.75;;;27.04;55.54
81897;BME280;71360;43.506;1.500;2023-07-30T09:51:39;99325.84;;;27.04;55.56
81897;BME280;71360;43.506;1.500;2023-07-30T09:54:06;99323.09;;;27.04;56.05
81897;BME280;71360;43.506;1.500;2023-07-30T09:56:33;99325.84;;;27.04;55.54
81897;BME280;71360;43.506;1.500;2023-07-30T09:59:00;99325.84;;;27.04;55.79
81897;BME280;71360;43.506;1.500;2023-07-30T10:01:27;99325.84;;;27.04;55.98
81897;BME280;71360;43.506;1.500;2023-07-30T10:03:56;99332.19;;;27.05;55.63
81897;BME280;71360;43.506;1.500;2023-07-30T10:06:23;99326.88;;;27.03;55.36
81897;BME280;71360;43.506;1.500;2023-07-30T10:08:53;99323.09;;;27.04;56.10
81897;BME280;71360;43.506;1.500;2023-07-30T10:11:20;99329.44;;;27.05;55.87
81897;BME280;71360;43.506;1.500;2023-07-30T10:13:46;99332.19;;;27.05;55.89
81897;BME280;71360;43.506;1.500;2023-07-30T10:16:12;99326.69;;;27.05;55.85
81897;BME280;71360;43.506;1.500;2023-07-30T10:18:42;99327.56;;;27.05;55.72
81897;BME280;71360;43.506;1.500;2023-07-30T10:21:28;99343.66;;;27.08;56.13
81897;BME280;71360;43.506;1.500;2023-07-30T10:24:02;99337.50;;;27.06;56.02
81897;BME280;71360;43.506;1.500;2023-07-30T10:26:30;99335.97;;;27.04;55.73
81897;BME280;71360;43.506;1.500;2023-07-30T10:29:17;99322.72;;;27.07;55.45
81897;BME280;71360;43.506;1.500;2023-07-30T10:31:55;99333.06;;;27.05;55.57
81897;BME280;71360;43.506;1.500;2023-07-30T10:34:22;99332.38;;;27.03;55.53
81897;BME280;71360;43.506;1.500;2023-07-30T10:36:50;99330.50;;;27.04;55.53
81897;BME280;71360;43.506;1.500;2023-07-30T10:39:20;99328.59;;;27.04;55.72
81897;BME280;71360;43.506;1.500;2023-07-30T10:41:51;99325.84;;;27.04;55.51
81897;BME280;71360;43.506;1.500;2023-07-30T10:44:20;99325.84;;;27.04;55.83
81897;BME280;71360;43.506;1.500;2023-07-30T10:46:47;99330.50;;;27.04;55.75
81897;BME280;71360;43.506;1.500;2023-07-30T10:49:12;99331.34;;;27.04;55.57
81897;BME280;71360;43.506;1.500;2023-07-30T10:51:38;99331.34;;;27.04;55.25
81897;BME280;71360;43.506;1.500;2023-07-30T10:54:06;99328.59;;;27.04;55.69
81897;BME280;71360;43.506;1.500;2023-07-30T10:56:36;99320.38;;;27.04;55.26
81897;BME280;71360;43.506;1.500;2023-07-30T10:59:06;99326.69;;;27.05;55.27
81897;BME280;71360;43.506;1.500;2023-07-30T11:01:39;99327.56;;;27.05;55.72
81897;BME280;71360;43.506;1.500;2023-07-30T11:04:09;99327.56;;;27.05;55.28
81897;BME280;71360;43.506;1.500;2023-07-30T11:06:34;99333.06;;;27.05;56.07
81897;BME280;71360;43.506;1.500;2023-07-30T11:09:00;99327.56;;;27.05;56.04
81897;BME280;71360;43.506;1.500;2023-07-30T11:11:25;99329.28;;;27.06;55.43
81897;BME280;71360;43.506;1.500;2023-07-30T11:13:51;99327.56;;;27.05;55.27
81897;BME280;71360;43.506;1.500;2023-07-30T11:16:17;99320.00;;;27.07;55.39
81897;BME280;71360;43.506;1.500;2023-07-30T11:18:43;99321.88;;;27.07;56.03
81897;BME280;71360;43.506;1.500;2023-07-30T11:21:11;99321.06;;;27.06;55.54
81897;BME280;71360;43.506;1.500;2023-07-30T11:23:39;99320.00;;;27.07;55.71
81897;BME280;71360;43.506;1.500;2023-07-30T11:26:06;99316.41;;;27.07;55.91
81897;BME280;71360;43.506;1.500;2023-07-30T11:28:39;99317.94;;;27.09;55.53
81897;BME280;71360;43.506;1.500;2023-07-30T11:33:31;99316.22;;;27.08;55.41
81897;BME280;71360;43.506;1.500;2023-07-30T11:35:57;99309.03;;;27.07;55.53
81897;BME280;71360;43.506;1.500;2023-07-30T11:38:26;99311.56;;;27.09;55.35
81897;BME280;71360;43.506;1.500;2023-07-30T11:40:52;99310.72;;;27.08;55.71
81897;BME280;71360;43.506;1.500;2023-07-30T11:43:20;99300.59;;;27.09;55.80
81897;BME280;71360;43.506;1.500;2023-07-30T11:45:45;99306.97;;;27.09;56.03
81897;BME280;71360;43.506;1.500;2023-07-30T11:48:11;99300.59;;;27.09;55.79
81897;BME280;71360;43.506;1.500;2023-07-30T11:50:44;99297.69;;;27.10;55.70
81897;BME280;71360;43.506;1.500;2023-07-30T11:53:09;99293.44;;;27.08;55.55
81897;BME280;71360;43.506;1.500;2023-07-30T11:55:38;99300.44;;;27.10;56.06
81897;BME280;71360;43.506;1.500;2023-07-30T11:58:08;99296.00;;;27.09;55.37
81897;BME280;71360;43.506;1.500;2023-07-30T12:00:36;99303.34;;;27.09;55.91
81897;BME280;71360;43.506;1.500;2023-07-30T12:03:03;99288.59;;;27.10;55.45
81897;BME280;71360;43.506;1.500;2023-07-30T12:05:37;99297.69;;;27.10;55.85
81897;BME280;71360;43.506;1.500;2023-07-30T12:08:05;99297.69;;;27.10;55.86
81897;BME280;71360;43.506;1.500;2023-07-30T12:10:46;99304.69;;;27.13;55.74
81897;BME280;71360;43.506;1.500;2023-07-30T12:13:15;99303.19;;;27.10;55.59
81897;BME280;71360;43.506;1.500;2023-07-30T12:15:52;99300.44;;;27.10;55.52
81897;BME280;71360;43.506;1.500;2023-07-30T12:18:18;99291.34;;;27.10;55.63
81897;BME280;71360;43.506;1.500;2023-07-30T12:20:44;99301.28;;;27.11;55.46
81897;BME280;71360;43.506;1.500;2023-07-30T12:23:10;99293.06;;;27.11;55.75
81897;BME280;71360;43.506;1.500;2023-07-30T12:25:35;99291.16;;;27.11;56.04
81897;BME280;71360;43.506;1.500;2023-07-30T12:28:01;99291.16;;;27.11;55.95
81897;BME280;71360;43.506;1.500;2023-07-30T12:30:26;99292.03;;;27.12;55.39
81897;BME280;71360;43.506;1.500;2023-07-30T12:32:53;99284.66;;;27.12;55.52
81897;BME280;71360;43.506;1.500;2023-07-30T12:35:19;99290.97;;;27.13;55.85
81897;BME280;71360;43.506;1.500;2023-07-30T12:37:44;99281.06;;;27.12;55.55
81897;BME280;71360;43.506;1.500;2023-07-30T12:40:10;99285.47;;;27.13;55.88
81897;BME280;71360;43.506;1.500;2023-07-30T12:42:35;99275.38;;;27.13;55.83
81897;BME280;71360;43.506;1.500;2023-07-30T12:45:01;99269.91;;;27.13;56.00
81897;BME280;71360;43.506;1.500;2023-07-30T12:47:26;99280.88;;;27.13;55.63
81897;BME280;71360;43.506;1.500;2023-07-30T12:49:52;99281.72;;;27.14;55.92
81897;BME280;71360;43.506;1.500;2023-07-30T12:52:17;99271.63;;;27.15;55.46
81897;BME280;71360;43.506;1.500;2023-07-30T12:54:42;99268.88;;;27.15;55.17
81897;BME280;71360;43.506;1.500;2023-07-30T12:57:08;99270.75;;;27.14;55.35
81897;BME280;71360;43.506;1.500;2023-07-30T12:59:33;99271.63;;;27.15;55.74